createdAt,value
2018-08-18T00:02:09.513Z,17.20
2018-08-18T00:04:37.045Z,17.10
2018-08-18T00:07:04.606Z,17.10
2018-08-18T00:09:32.132Z,17.10
2018-08-18T00:11:59.693Z,17.10
2018-08-18T00:14:27.231Z,17.20
2018-08-18T00:16:54.789Z,17.20
2018-08-18T00:19:22.345Z,17.20
2018-08-18T00:21:49.873Z,17.20
2018-08-18T00:24:17.426Z,17.20
2018-08-18T00:26:44.981Z,17.10
2018-08-18T00:29:12.558Z,17.10
2018-08-18T00:31:40.095Z,17.10
2018-08-18T00:34:08.613Z,17.10
2018-08-18T00:36:36.186Z,17.00
2018-08-18T00:39:03.717Z,17.00
2018-08-18T00:41:31.277Z,17.00
2018-08-18T00:43:58.829Z,16.90
2018-08-18T00:46:26.362Z,16.90
2018-08-18T00:48:53.915Z,16.90
2018-08-18T00:51:21.541Z,16.90
2018-08-18T00:53:49.096Z,16.90
2018-08-18T00:56:19.378Z,16.80
2018-08-18T00:58:46.946Z,16.80
2018-08-18T01:01:14.504Z,16.80
2018-08-18T01:03:42.057Z,16.70
2018-08-18T01:06:09.638Z,16.70
2018-08-18T01:08:37.203Z,16.70
2018-08-18T01:11:05.608Z,16.80
2018-08-18T01:13:33.157Z,16.80
2018-08-18T01:16:00.699Z,16.80
2018-08-18T01:18:29.224Z,16.80
2018-08-18T01:20:56.854Z,16.80
2018-08-18T01:23:24.411Z,16.80
2018-08-18T01:25:52.974Z,16.80
2018-08-18T01:28:20.536Z,16.70
2018-08-18T01:30:48.081Z,16.70
2018-08-18T01:33:15.628Z,16.70
2018-08-18T01:35:44.165Z,16.70
2018-08-18T01:38:11.702Z,16.70
2018-08-18T01:40:39.265Z,16.80
2018-08-18T01:43:06.801Z,16.70
2018-08-18T01:45:35.101Z,16.80
2018-08-18T01:48:02.701Z,16.80
2018-08-18T01:50:31.204Z,16.70
2018-08-18T01:52:58.761Z,16.70
2018-08-18T01:55:27.061Z,16.70
2018-08-18T01:57:54.612Z,16.70
2018-08-18T02:00:22.173Z,16.70
2018-08-18T02:02:49.727Z,16.80
2018-08-18T02:05:17.257Z,16.60
2018-08-18T02:07:45.589Z,16.60
2018-08-18T02:10:13.129Z,16.60
2018-08-18T02:12:40.685Z,16.60
2018-08-18T02:15:08.730Z,16.70
2018-08-18T02:17:36.301Z,16.80
2018-08-18T02:20:03.911Z,16.80
2018-08-18T02:22:32.366Z,16.80
2018-08-18T02:24:59.902Z,16.90
2018-08-18T02:27:27.472Z,16.90
2018-08-18T02:29:55.001Z,16.90
2018-08-18T02:32:22.557Z,16.90
2018-08-18T02:34:50.109Z,16.90
2018-08-18T02:37:18.428Z,17.00
2018-08-18T02:39:46.920Z,17.00
2018-08-18T02:42:14.486Z,17.00
2018-08-18T02:44:42.018Z,17.00
2018-08-18T02:47:09.554Z,16.90
2018-08-18T02:49:37.114Z,16.90
2018-08-18T02:52:04.647Z,16.90
2018-08-18T02:54:32.217Z,16.90
2018-08-18T02:56:59.757Z,16.90
2018-08-18T02:59:27.312Z,16.80
2018-08-18T03:01:54.848Z,16.80
2018-08-18T03:04:22.397Z,16.80
2018-08-18T03:06:49.958Z,16.80
2018-08-18T03:09:17.514Z,16.90
2018-08-18T03:11:46.101Z,16.80
2018-08-18T03:14:13.661Z,16.80
2018-08-18T03:16:41.206Z,16.70
2018-08-18T03:19:08.783Z,16.60
2018-08-18T03:21:36.372Z,16.60
2018-08-18T03:24:05.896Z,16.50
2018-08-18T03:26:33.446Z,16.60
2018-08-18T03:29:01.089Z,16.50
2018-08-18T03:31:28.630Z,16.50
2018-08-18T03:33:58.914Z,16.60
2018-08-18T03:36:26.480Z,16.60
2018-08-18T03:38:54.069Z,16.70
2018-08-18T03:41:22.377Z,16.80
2018-08-18T03:43:49.941Z,16.70
2018-08-18T03:46:18.463Z,16.70
2018-08-18T03:48:46.035Z,16.70
2018-08-18T03:51:14.345Z,16.60
2018-08-18T03:53:41.912Z,16.60
2018-08-18T03:56:09.467Z,16.50
2018-08-18T03:58:38.994Z,16.50
2018-08-18T04:01:06.526Z,16.60
2018-08-18T04:03:34.081Z,16.70
2018-08-18T04:06:01.646Z,16.70
2018-08-18T04:08:29.177Z,16.70
2018-08-18T04:10:56.742Z,16.70
2018-08-18T04:13:24.269Z,16.70
2018-08-18T04:15:52.613Z,16.70
2018-08-18T04:18:20.145Z,16.70
2018-08-18T04:20:47.706Z,16.70
2018-08-18T04:23:15.242Z,16.80
2018-08-18T04:25:42.806Z,16.80
2018-08-18T04:28:10.365Z,16.90
2018-08-18T04:30:37.904Z,16.90
2018-08-18T04:33:05.480Z,16.90
2018-08-18T04:35:33.045Z,16.90
2018-08-18T04:38:00.572Z,16.80
2018-08-18T04:40:29.100Z,16.90
2018-08-18T04:42:56.631Z,16.90
2018-08-18T04:45:24.198Z,16.90
2018-08-18T04:47:51.771Z,16.90
2018-08-18T04:50:19.365Z,16.80
2018-08-18T04:52:47.699Z,16.80
2018-08-18T04:55:15.237Z,16.80
2018-08-18T04:57:42.822Z,16.80
2018-08-18T05:00:10.390Z,16.90
2018-08-18T05:02:37.953Z,16.70
2018-08-18T05:05:05.526Z,16.80
2018-08-18T05:07:33.093Z,16.80
2018-08-18T05:10:00.668Z,16.90
2018-08-18T05:12:28.217Z,17.00
2018-08-18T05:14:55.783Z,17.00
2018-08-18T05:17:23.361Z,17.10
2018-08-18T05:19:50.947Z,17.20
2018-08-18T05:22:18.491Z,17.10
2018-08-18T05:24:46.060Z,17.10
2018-08-18T05:27:13.630Z,17.20
2018-08-18T05:29:41.193Z,17.20
2018-08-18T05:32:08.777Z,17.20
2018-08-18T05:34:36.323Z,17.10
2018-08-18T05:37:04.657Z,17.00
2018-08-18T05:39:32.197Z,17.00
2018-08-18T05:41:59.782Z,17.00
2018-08-18T05:44:27.331Z,17.10
2018-08-18T05:46:54.893Z,17.10
2018-08-18T05:49:22.473Z,17.10
2018-08-18T05:51:50.043Z,17.10
2018-08-18T05:54:17.634Z,17.20
2018-08-18T05:56:45.192Z,17.30
2018-08-18T05:59:12.764Z,17.30
2018-08-18T06:01:41.297Z,17.20
2018-08-18T06:04:08.849Z,17.40
2018-08-18T06:06:37.150Z,17.60
2018-08-18T06:09:04.715Z,17.60
2018-08-18T06:11:32.270Z,17.60
2018-08-18T06:13:59.829Z,17.70
2018-08-18T06:16:27.370Z,17.70
2018-08-18T06:18:54.955Z,17.80
2018-08-18T06:21:22.499Z,17.80
2018-08-18T06:23:50.074Z,17.80
2018-08-18T06:26:17.616Z,17.90
2018-08-18T06:28:45.178Z,18.00
2018-08-18T06:31:12.742Z,18.00
2018-08-18T06:33:40.329Z,17.90
2018-08-18T06:36:07.884Z,18.00
2018-08-18T06:38:35.429Z,18.10
2018-08-18T06:41:03.038Z,18.10
2018-08-18T06:43:30.582Z,18.20
2018-08-18T06:45:59.190Z,18.20
2018-08-18T06:48:26.766Z,18.30
2018-08-18T06:50:54.311Z,18.40
2018-08-18T06:53:21.881Z,18.50
2018-08-18T06:55:49.456Z,18.60
2018-08-18T06:58:17.042Z,18.60
2018-08-18T07:00:44.601Z,18.70
2018-08-18T07:03:12.186Z,18.80
2018-08-18T07:05:39.757Z,18.90
2018-08-18T07:08:07.325Z,19.00
2018-08-18T07:10:34.868Z,18.70
2018-08-18T07:13:03.398Z,18.70
2018-08-18T07:15:30.942Z,18.60
2018-08-18T07:17:58.498Z,18.70
2018-08-18T07:20:26.064Z,18.70
2018-08-18T07:22:55.598Z,18.70
2018-08-18T07:25:23.143Z,18.70
2018-08-18T07:27:50.733Z,18.80
2018-08-18T07:30:18.312Z,19.10
2018-08-18T07:32:45.871Z,19.00
2018-08-18T07:35:13.417Z,19.10
2018-08-18T07:37:41.005Z,19.30
2018-08-18T07:40:08.690Z,19.20
2018-08-18T07:42:37.206Z,19.60
2018-08-18T07:45:04.766Z,20.00
2018-08-18T07:47:33.309Z,20.10
2018-08-18T07:50:00.850Z,20.10
2018-08-18T07:52:28.429Z,20.30
2018-08-18T07:54:55.994Z,20.50
2018-08-18T07:57:23.548Z,20.30
2018-08-18T07:59:51.922Z,20.40
2018-08-18T08:02:20.263Z,20.30
2018-08-18T08:04:49.802Z,20.30
2018-08-18T08:07:17.357Z,20.50
2018-08-18T08:09:45.697Z,20.40
2018-08-18T08:12:13.248Z,20.40
2018-08-18T08:14:42.767Z,20.20
2018-08-18T08:17:10.333Z,20.20
2018-08-18T08:19:37.883Z,20.10
2018-08-18T08:22:05.457Z,20.20
2018-08-18T08:24:33.015Z,20.30
2018-08-18T08:27:00.605Z,20.40
2018-08-18T08:29:28.159Z,20.50
2018-08-18T08:31:55.737Z,20.40
2018-08-18T08:34:23.294Z,20.40
2018-08-18T08:36:50.946Z,20.40
2018-08-18T08:39:18.442Z,20.40
2018-08-18T08:41:46.011Z,20.40
2018-08-18T08:44:13.551Z,20.60
2018-08-18T08:46:41.156Z,20.70
2018-08-18T08:49:08.808Z,20.70
2018-08-18T08:51:36.299Z,20.80
2018-08-18T08:54:03.903Z,21.20
2018-08-18T08:56:31.474Z,21.60
2018-08-18T08:58:59.864Z,21.60
2018-08-18T09:01:27.417Z,21.60
2018-08-18T09:03:54.990Z,22.10
2018-08-18T09:06:22.537Z,22.50
2018-08-18T09:08:50.119Z,22.70
2018-08-18T09:11:17.666Z,23.00
2018-08-18T09:13:45.400Z,22.80
2018-08-18T09:16:13.708Z,23.00
2018-08-18T09:18:43.266Z,23.00
2018-08-18T09:21:10.848Z,23.20
2018-08-18T09:23:39.377Z,23.20
2018-08-18T09:26:07.737Z,23.60
2018-08-18T09:28:35.267Z,23.60
2018-08-18T09:31:02.853Z,23.70
2018-08-18T09:33:30.398Z,23.60
2018-08-18T09:35:57.968Z,23.20
2018-08-18T09:38:26.476Z,23.30
2018-08-18T09:40:54.053Z,22.80
2018-08-18T09:43:22.573Z,22.60
2018-08-18T09:45:50.113Z,22.60
2018-08-18T09:48:19.630Z,22.40
2018-08-18T09:50:47.178Z,22.50
2018-08-18T09:53:14.758Z,22.50
2018-08-18T09:55:42.293Z,22.70
2018-08-18T09:58:09.852Z,23.00
2018-08-18T10:00:37.432Z,23.30
2018-08-18T10:03:04.975Z,23.10
2018-08-18T10:05:32.738Z,23.20
2018-08-18T10:08:00.277Z,23.20
2018-08-18T10:10:27.833Z,23.30
2018-08-18T10:12:55.366Z,23.40
2018-08-18T10:15:25.744Z,22.80
2018-08-18T10:17:54.018Z,22.90
2018-08-18T10:20:21.566Z,22.80
2018-08-18T10:22:49.129Z,23.20
2018-08-18T10:25:16.689Z,23.70
2018-08-18T10:27:44.251Z,23.80
2018-08-18T10:30:11.815Z,23.40
2018-08-18T10:32:39.381Z,22.90
2018-08-18T10:35:07.842Z,22.90
2018-08-18T10:37:35.402Z,23.20
2018-08-18T10:40:03.935Z,23.40
2018-08-18T10:42:31.474Z,23.90
2018-08-18T10:44:59.043Z,24.10
2018-08-18T10:47:27.378Z,24.30
2018-08-18T10:50:07.641Z,24.30
2018-08-18T10:52:46.985Z,24.40
2018-08-18T10:55:15.495Z,24.50
2018-08-18T10:57:56.932Z,24.50
2018-08-18T11:00:24.478Z,24.60
2018-08-18T11:02:52.043Z,24.50
2018-08-18T11:05:21.561Z,24.90
2018-08-18T11:07:49.109Z,25.20
2018-08-18T11:10:16.698Z,24.90
2018-08-18T11:12:44.263Z,25.10
2018-08-18T11:15:11.813Z,25.30
2018-08-18T11:17:40.147Z,25.20
2018-08-18T11:20:07.724Z,25.20
2018-08-18T11:22:43.041Z,25.30
2018-08-18T11:25:10.612Z,25.40
2018-08-18T11:27:38.153Z,25.40
2018-08-18T11:30:05.728Z,25.10
2018-08-18T11:32:33.295Z,25.30
2018-08-18T11:35:00.921Z,25.20
2018-08-18T11:37:29.385Z,25.60
2018-08-18T11:39:56.949Z,25.40
2018-08-18T11:42:24.524Z,25.20
2018-08-18T11:44:52.095Z,25.60
2018-08-18T11:47:19.633Z,25.90
2018-08-18T11:49:47.194Z,26.00
2018-08-18T11:52:14.729Z,26.30
2018-08-18T11:54:42.283Z,26.40
2018-08-18T11:57:09.848Z,26.70
2018-08-18T11:59:37.401Z,26.30
2018-08-18T12:02:04.976Z,26.40
2018-08-18T12:04:32.527Z,26.30
2018-08-18T12:07:00.085Z,26.60
2018-08-18T12:09:27.621Z,26.80
2018-08-18T12:11:55.189Z,26.80
2018-08-18T12:14:22.721Z,26.40
2018-08-18T12:16:50.257Z,26.40
2018-08-18T12:19:19.747Z,26.10
2018-08-18T12:21:48.082Z,26.20
2018-08-18T12:24:15.696Z,26.10
2018-08-18T12:26:44.170Z,26.10
2018-08-18T12:29:11.720Z,26.00
2018-08-18T12:31:40.049Z,26.60
2018-08-18T12:34:07.605Z,26.60
2018-08-18T12:36:35.216Z,27.00
2018-08-18T12:39:02.772Z,27.30
2018-08-18T12:41:31.097Z,27.20
2018-08-18T12:43:58.649Z,27.20
2018-08-18T12:46:27.145Z,27.50
2018-08-18T12:48:54.705Z,27.60
2018-08-18T12:51:22.256Z,27.40
2018-08-18T12:53:49.818Z,27.50
2018-08-18T12:56:17.386Z,27.30
2018-08-18T12:58:45.005Z,27.10
2018-08-18T13:01:12.523Z,27.10
2018-08-18T13:03:41.008Z,27.40
2018-08-18T13:06:09.346Z,28.10
2018-08-18T13:08:36.873Z,28.10
2018-08-18T13:11:04.449Z,28.10
2018-08-18T13:13:32.753Z,28.10
2018-08-18T13:16:02.257Z,28.10
2018-08-18T13:18:29.815Z,28.30
2018-08-18T13:20:57.378Z,28.90
2018-08-18T13:23:24.914Z,28.60
2018-08-18T13:25:52.481Z,27.90
2018-08-18T13:28:20.041Z,27.40
2018-08-18T13:30:48.541Z,27.30
2018-08-18T13:33:16.913Z,27.70
2018-08-18T13:35:46.412Z,27.60
2018-08-18T13:38:13.964Z,28.50
2018-08-18T13:40:42.268Z,28.30
2018-08-18T13:43:09.833Z,28.20
2018-08-18T13:45:37.380Z,28.70
2018-08-18T13:48:04.938Z,28.70
2018-08-18T13:50:32.473Z,29.20
2018-08-18T13:53:00.809Z,29.70
2018-08-18T13:55:28.341Z,29.60
2018-08-18T13:57:55.904Z,29.80
2018-08-18T14:00:23.442Z,30.20
2018-08-18T14:02:51.000Z,29.70
2018-08-18T14:05:18.534Z,29.10
2018-08-18T14:07:46.093Z,28.20
2018-08-18T14:10:13.650Z,27.50
2018-08-18T14:12:41.990Z,27.00
2018-08-18T14:15:10.488Z,27.00
2018-08-18T14:17:38.059Z,26.70
2018-08-18T14:20:05.622Z,26.50
2018-08-18T14:22:34.889Z,26.80
2018-08-18T14:25:02.453Z,26.80
2018-08-18T14:27:29.985Z,26.80
2018-08-18T14:29:57.550Z,26.40
2018-08-18T14:32:25.109Z,26.10
2018-08-18T14:34:52.686Z,26.10
2018-08-18T14:37:21.180Z,26.10
2018-08-18T14:39:49.475Z,26.10
2018-08-18T14:42:17.048Z,26.10
2018-08-18T14:44:44.595Z,26.20
2018-08-18T14:47:12.166Z,26.20
2018-08-18T14:49:39.710Z,26.60
2018-08-18T14:52:07.247Z,26.90
2018-08-18T14:54:34.859Z,27.30
2018-08-18T14:57:02.424Z,27.30
2018-08-18T14:59:31.954Z,27.40
2018-08-18T15:02:00.258Z,27.20
2018-08-18T15:04:27.850Z,27.20
2018-08-18T15:06:55.386Z,27.80
2018-08-18T15:09:22.966Z,27.60
2018-08-18T15:11:50.496Z,27.20
2018-08-18T15:14:18.030Z,27.20
2018-08-18T15:16:45.591Z,27.20
2018-08-18T15:19:13.128Z,27.70
2018-08-18T15:21:40.703Z,28.00
2018-08-18T15:24:08.317Z,28.10
2018-08-18T15:26:35.856Z,27.70
2018-08-18T15:29:03.425Z,27.80
2018-08-18T15:31:30.994Z,27.70
2018-08-18T15:33:58.558Z,28.10
2018-08-18T15:36:29.644Z,28.50
2018-08-18T15:38:57.196Z,28.90
2018-08-18T15:41:25.747Z,28.60
2018-08-18T15:43:53.289Z,28.40
2018-08-18T15:46:21.829Z,28.20
2018-08-18T15:48:51.337Z,27.90
2018-08-18T15:51:19.860Z,27.90
2018-08-18T15:53:48.201Z,27.90
2018-08-18T15:56:15.767Z,27.90
2018-08-18T15:58:43.301Z,27.90
2018-08-18T16:01:12.809Z,28.00
2018-08-18T16:03:40.342Z,27.60
2018-08-18T16:06:08.893Z,27.30
2018-08-18T16:08:37.195Z,27.50
2018-08-18T16:11:04.728Z,27.50
2018-08-18T16:13:32.296Z,28.00
2018-08-18T16:15:59.837Z,27.70
2018-08-18T16:18:27.393Z,27.40
2018-08-18T16:20:55.701Z,27.20
2018-08-18T16:23:23.301Z,27.20
2018-08-18T16:25:50.832Z,27.00
2018-08-18T16:28:18.409Z,26.60
2018-08-18T16:30:46.897Z,26.50
2018-08-18T16:33:14.466Z,26.40
2018-08-18T16:35:42.005Z,26.40
2018-08-18T16:38:11.519Z,26.20
2018-08-18T16:40:39.078Z,26.20
2018-08-18T16:43:06.646Z,26.20
2018-08-18T16:45:34.177Z,26.10
2018-08-18T16:48:01.736Z,26.20
2018-08-18T16:50:29.296Z,26.10
2018-08-18T16:52:56.864Z,26.10
2018-08-18T16:55:24.407Z,26.20
2018-08-18T16:57:52.749Z,26.20
2018-08-18T17:00:20.280Z,26.20
2018-08-18T17:02:47.835Z,26.20
2018-08-18T17:05:15.401Z,26.40
2018-08-18T17:07:42.958Z,26.50
2018-08-18T17:10:10.513Z,26.60
2018-08-18T17:12:38.070Z,26.40
2018-08-18T17:15:05.626Z,26.20
2018-08-18T17:17:33.157Z,25.90
2018-08-18T17:20:00.739Z,25.80
2018-08-18T17:22:29.263Z,25.60
2018-08-18T17:24:56.846Z,25.60
2018-08-18T17:27:24.422Z,25.50
2018-08-18T17:29:51.995Z,25.40
2018-08-18T17:32:19.528Z,25.50
2018-08-18T17:34:47.095Z,25.30
2018-08-18T17:37:14.678Z,25.40
2018-08-18T17:39:42.210Z,25.30
2018-08-18T17:42:09.792Z,25.30
2018-08-18T17:44:38.301Z,25.20
2018-08-18T17:47:05.891Z,25.20
2018-08-18T17:49:34.333Z,25.10
2018-08-18T17:52:01.797Z,25.10
2018-08-18T17:54:29.366Z,25.10
2018-08-18T17:56:56.901Z,24.90
2018-08-18T17:59:24.470Z,24.80
2018-08-18T18:01:52.025Z,24.70
2018-08-18T18:04:20.592Z,24.50
2018-08-18T18:06:48.143Z,24.40
2018-08-18T18:09:15.706Z,24.30
2018-08-18T18:11:43.242Z,24.20
2018-08-18T18:14:10.805Z,24.10
2018-08-18T18:16:39.270Z,24.00
2018-08-18T18:19:06.838Z,23.90
2018-08-18T18:21:35.336Z,23.90
2018-08-18T18:24:02.893Z,23.80
2018-08-18T18:26:30.438Z,23.70
2018-08-18T18:28:58.010Z,23.60
2018-08-18T18:31:26.600Z,23.50
2018-08-18T18:33:54.140Z,23.50
2018-08-18T18:36:21.714Z,23.40
2018-08-18T18:38:49.256Z,23.30
2018-08-18T18:41:16.821Z,23.20
2018-08-18T18:43:44.352Z,23.10
2018-08-18T18:46:11.933Z,23.10
2018-08-18T18:48:41.442Z,23.00
2018-08-18T18:51:08.982Z,23.00
2018-08-18T18:53:36.547Z,22.90
2018-08-18T18:56:04.109Z,22.80
2018-08-18T18:58:31.669Z,22.80
2018-08-18T19:00:59.211Z,22.70
2018-08-18T19:03:26.765Z,22.70
2018-08-18T19:05:54.333Z,22.50
2018-08-18T19:08:21.893Z,22.50
2018-08-18T19:10:49.435Z,22.40
2018-08-18T19:13:18.938Z,22.40
2018-08-18T19:15:46.475Z,22.30
2018-08-18T19:18:14.058Z,22.30
2018-08-18T19:20:41.629Z,22.20
2018-08-18T19:23:09.208Z,22.20
2018-08-18T19:25:37.509Z,22.10
2018-08-18T19:28:05.073Z,22.10
2018-08-18T19:30:32.633Z,22.00
2018-08-18T19:33:00.228Z,22.00
2018-08-18T19:35:28.730Z,21.90
2018-08-18T19:37:56.304Z,22.00
2018-08-18T19:40:23.853Z,22.00
2018-08-18T19:42:52.183Z,22.00
2018-08-18T19:45:19.726Z,22.00
2018-08-18T19:47:47.298Z,22.00
2018-08-18T19:50:14.870Z,22.00
2018-08-18T19:52:42.483Z,22.10
2018-08-18T19:55:10.033Z,22.10
2018-08-18T19:57:37.609Z,22.20
2018-08-18T20:00:06.149Z,22.10
2018-08-18T20:02:33.700Z,22.20
2018-08-18T20:05:02.041Z,22.00
2018-08-18T20:07:29.582Z,22.00
2018-08-18T20:09:57.146Z,22.00
2018-08-18T20:12:24.730Z,22.00
2018-08-18T20:14:52.303Z,22.00
2018-08-18T20:17:19.849Z,22.00
2018-08-18T20:19:48.386Z,22.10
2018-08-18T20:22:17.913Z,22.10
2018-08-18T20:24:45.488Z,22.00
2018-08-18T20:27:13.018Z,22.00
2018-08-18T20:29:40.565Z,22.00
2018-08-18T20:32:08.109Z,22.00
2018-08-18T20:34:35.802Z,22.00
2018-08-18T20:37:03.295Z,22.10
2018-08-18T20:39:32.595Z,22.10
2018-08-18T20:42:01.872Z,22.00
2018-08-18T20:44:29.447Z,22.00
2018-08-18T20:46:57.027Z,22.10
2018-08-18T20:49:24.593Z,22.10
2018-08-18T20:51:52.136Z,22.10
2018-08-18T20:54:19.689Z,22.10
2018-08-18T20:56:48.251Z,22.10
2018-08-18T20:59:16.559Z,22.10
2018-08-18T21:01:46.067Z,22.00
2018-08-18T21:04:13.632Z,22.00
2018-08-18T21:06:41.178Z,22.00
2018-08-18T21:09:09.713Z,21.90
2018-08-18T21:11:37.276Z,21.70
2018-08-18T21:14:04.840Z,21.60
2018-08-18T21:16:32.370Z,21.50
2018-08-18T21:18:59.936Z,21.40
2018-08-18T21:21:27.478Z,21.30
2018-08-18T21:23:55.049Z,21.30
2018-08-18T21:26:22.636Z,21.30
2018-08-18T21:28:50.188Z,21.20
2018-08-18T21:31:18.498Z,21.30
2018-08-18T21:33:46.030Z,21.20
2018-08-18T21:36:13.598Z,21.30
2018-08-18T21:38:41.146Z,21.30
2018-08-18T21:41:08.709Z,21.30
2018-08-18T21:43:36.241Z,21.30
2018-08-18T21:46:04.561Z,21.30
2018-08-18T21:48:32.209Z,21.30
2018-08-18T21:50:59.764Z,21.40
2018-08-18T21:53:27.330Z,21.40
2018-08-18T21:55:54.871Z,21.40
2018-08-18T21:58:24.369Z,21.30
2018-08-18T22:00:51.907Z,21.30
2018-08-18T22:03:19.511Z,21.20
2018-08-18T22:05:47.996Z,21.20
2018-08-18T22:08:15.556Z,21.20
2018-08-18T22:10:43.101Z,21.20
2018-08-18T22:13:10.637Z,21.10
2018-08-18T22:15:38.196Z,21.00
2018-08-18T22:18:05.724Z,21.00
2018-08-18T22:20:33.293Z,20.90
2018-08-18T22:23:02.556Z,20.70
2018-08-18T22:25:30.128Z,20.70
2018-08-18T22:27:57.680Z,20.70
2018-08-18T22:30:25.244Z,20.70
2018-08-18T22:32:52.796Z,20.60
2018-08-18T22:35:20.361Z,20.50
2018-08-18T22:37:47.902Z,20.50
2018-08-18T22:40:15.465Z,20.30
2018-08-18T22:42:43.001Z,20.30
2018-08-18T22:45:17.277Z,20.20
2018-08-18T22:47:44.813Z,20.20
2018-08-18T22:50:13.114Z,20.20
2018-08-18T22:52:40.678Z,20.20
2018-08-18T22:55:08.517Z,20.10
2018-08-18T22:57:36.845Z,20.00
2018-08-18T23:00:04.398Z,20.00
2018-08-18T23:02:31.967Z,20.00
2018-08-18T23:04:59.511Z,19.90
2018-08-18T23:07:27.086Z,19.80
2018-08-18T23:09:54.623Z,19.80
2018-08-18T23:12:22.191Z,19.70
2018-08-18T23:14:49.725Z,19.60
2018-08-18T23:17:17.289Z,19.60
2018-08-18T23:19:44.862Z,19.50
2018-08-18T23:22:13.340Z,19.40
2018-08-18T23:24:40.909Z,19.40
2018-08-18T23:27:08.441Z,19.30
2018-08-18T23:29:36.004Z,19.30
2018-08-18T23:32:03.540Z,19.30
2018-08-18T23:34:32.038Z,19.30
2018-08-18T23:36:59.601Z,19.30
2018-08-18T23:39:27.134Z,19.30
2018-08-18T23:41:56.639Z,19.30
2018-08-18T23:44:24.200Z,19.30
2018-08-18T23:46:51.746Z,19.20
2018-08-18T23:49:19.315Z,19.10
2018-08-18T23:51:47.878Z,19.10
2018-08-18T23:54:15.443Z,19.00
2018-08-18T23:56:42.981Z,19.00
2018-08-18T23:59:10.540Z,19.00
